createdAt,value
2023-10-16T00:00:11.417Z,91.41
2023-10-16T00:01:11.435Z,91.31
2023-10-16T00:02:11.343Z,91.72
2023-10-16T00:03:11.481Z,91.72
2023-10-16T00:04:11.421Z,91.72
2023-10-16T00:05:11.325Z,91.93
2023-10-16T00:06:11.318Z,91.93
2023-10-16T00:07:11.318Z,91.93
2023-10-16T00:08:11.296Z,92.14
2023-10-16T00:09:11.308Z,92.03
2023-10-16T00:10:11.264Z,92.14
2023-10-16T00:11:11.243Z,91.93
2023-10-16T00:12:11.366Z,91.83
2023-10-16T00:13:11.251Z,91.93
2023-10-16T00:14:11.220Z,92.14
2023-10-16T00:15:11.293Z,91.72
2023-10-16T00:16:11.237Z,91.83
2023-10-16T00:17:11.201Z,91.93
2023-10-16T00:18:11.236Z,91.72
2023-10-16T00:19:11.165Z,91.93
2023-10-16T00:20:11.153Z,91.93
2023-10-16T00:21:11.218Z,91.72
2023-10-16T00:22:11.170Z,91.93
2023-10-16T00:23:11.130Z,92.14
2023-10-16T00:24:11.195Z,91.62
2023-10-16T00:25:11.139Z,91.62
2023-10-16T00:26:11.095Z,91.10
2023-10-16T00:27:11.100Z,91.00
2023-10-16T00:28:11.115Z,91.10
2023-10-16T00:29:11.091Z,91.83
2023-10-16T00:30:11.062Z,91.93
2023-10-16T00:31:11.234Z,92.14
2023-10-16T00:32:11.029Z,91.93
2023-10-16T00:33:12.720Z,91.93
2023-10-16T00:34:11.035Z,92.35
2023-10-16T00:35:11.006Z,92.07
2023-10-16T00:36:10.982Z,92.18
2023-10-16T00:37:10.977Z,92.18
2023-10-16T00:38:10.958Z,92.49
2023-10-16T00:39:11.087Z,92.59
2023-10-16T00:40:10.941Z,92.59
2023-10-16T00:41:10.935Z,92.90
2023-10-16T00:42:10.930Z,92.49
2023-10-16T00:43:10.909Z,92.28
2023-10-16T00:44:10.918Z,92.07
2023-10-16T00:45:10.916Z,92.49
2023-10-16T00:46:10.986Z,92.80
2023-10-16T00:47:11.259Z,93.63
2023-10-16T00:48:10.883Z,93.74
2023-10-16T00:49:10.881Z,93.84
2023-10-16T00:50:10.859Z,93.78
2023-10-16T00:51:10.848Z,93.53
2023-10-16T00:52:10.830Z,93.26
2023-10-16T00:53:10.814Z,92.94
2023-10-16T00:54:10.818Z,93.26
2023-10-16T00:55:10.845Z,93.26
2023-10-16T00:56:10.798Z,93.99
2023-10-16T00:57:10.772Z,94.30
2023-10-16T00:58:10.780Z,94.40
2023-10-16T00:59:10.751Z,94.09
2023-10-16T01:00:10.738Z,94.61
2023-10-16T01:01:10.816Z,94.20
2023-10-16T01:02:10.803Z,94.20
2023-10-16T01:03:10.741Z,93.78
2023-10-16T01:04:10.752Z,94.09
2023-10-16T01:05:10.681Z,94.30
2023-10-16T01:06:10.700Z,94.40
2023-10-16T01:07:10.659Z,94.20
2023-10-16T01:08:10.645Z,94.40
2023-10-16T01:09:10.665Z,94.71
2023-10-16T01:10:10.624Z,94.71
2023-10-16T01:11:10.608Z,94.20
2023-10-16T01:12:10.625Z,94.09
2023-10-16T01:13:10.595Z,94.36
2023-10-16T01:14:10.601Z,94.36
2023-10-16T01:15:10.582Z,94.46
2023-10-16T01:16:10.599Z,94.46
2023-10-16T01:17:10.916Z,94.26
2023-10-16T01:18:10.627Z,94.36
2023-10-16T01:19:10.560Z,94.26
2023-10-16T01:20:10.536Z,94.36
2023-10-16T01:21:10.529Z,94.15
2023-10-16T01:22:10.504Z,94.26
2023-10-16T01:23:10.542Z,94.46
2023-10-16T01:24:10.486Z,94.46
2023-10-16T01:25:10.520Z,94.36
2023-10-16T01:26:10.472Z,93.95
2023-10-16T01:27:10.454Z,94.26
2023-10-16T01:28:10.473Z,93.95
2023-10-16T01:29:10.451Z,93.63
2023-10-16T01:30:10.452Z,93.78
2023-10-16T01:31:10.451Z,94.30
2023-10-16T01:32:10.417Z,94.09
2023-10-16T01:33:10.430Z,93.88
2023-10-16T01:34:10.404Z,93.99
2023-10-16T01:35:10.378Z,93.74
2023-10-16T01:36:10.372Z,93.84
2023-10-16T01:37:10.546Z,94.05
2023-10-16T01:38:10.331Z,93.63
2023-10-16T01:39:10.355Z,93.53
2023-10-16T01:40:10.315Z,93.63
2023-10-16T01:41:10.310Z,93.74
2023-10-16T01:42:10.303Z,93.74
2023-10-16T01:43:10.293Z,93.63
2023-10-16T01:44:10.275Z,93.74
2023-10-16T01:45:10.309Z,93.53
2023-10-16T01:46:10.421Z,93.32
2023-10-16T01:47:10.238Z,93.43
2023-10-16T01:48:10.241Z,93.63
2023-10-16T01:49:10.231Z,93.12
2023-10-16T01:50:10.242Z,93.63
2023-10-16T01:51:10.228Z,93.53
2023-10-16T01:52:10.194Z,93.63
2023-10-16T01:53:10.179Z,93.43
2023-10-16T01:54:10.212Z,93.63
2023-10-16T01:55:10.184Z,93.74
2023-10-16T01:56:10.166Z,93.74
2023-10-16T01:57:10.191Z,93.43
2023-10-16T01:58:10.251Z,93.43
2023-10-16T01:59:10.160Z,93.22
2023-10-16T02:00:10.144Z,93.22
2023-10-16T02:01:10.204Z,92.90
2023-10-16T02:02:10.129Z,93.01
2023-10-16T02:03:10.471Z,93.01
2023-10-16T02:04:10.132Z,93.01
2023-10-16T02:05:10.055Z,93.12
2023-10-16T02:06:10.201Z,93.12
2023-10-16T02:07:10.194Z,93.01
2023-10-16T02:08:10.034Z,93.12
2023-10-16T02:09:10.035Z,93.22
2023-10-16T02:10:10.008Z,93.12
2023-10-16T02:11:09.991Z,93.12
2023-10-16T02:12:10.002Z,93.01
2023-10-16T02:13:09.969Z,93.01
2023-10-16T02:14:09.973Z,93.16
2023-10-16T02:15:09.964Z,93.05
2023-10-16T02:16:10.035Z,93.26
2023-10-16T02:17:09.967Z,93.57
2023-10-16T02:18:09.917Z,93.37
2023-10-16T02:19:09.904Z,93.47
2023-10-16T02:20:09.907Z,93.26
2023-10-16T02:21:09.885Z,93.37
2023-10-16T02:22:09.911Z,93.26
2023-10-16T02:23:09.864Z,93.47
2023-10-16T02:24:09.874Z,93.37
2023-10-16T02:25:09.888Z,93.16
2023-10-16T02:26:09.854Z,92.84
2023-10-16T02:27:09.824Z,93.05
2023-10-16T02:28:09.925Z,93.16
2023-10-16T02:29:09.800Z,93.05
2023-10-16T02:30:09.794Z,93.16
2023-10-16T02:31:09.789Z,93.16
2023-10-16T02:32:09.782Z,93.37
2023-10-16T02:33:09.798Z,93.47
2023-10-16T02:34:09.760Z,93.47
2023-10-16T02:35:09.744Z,93.57
2023-10-16T02:36:09.748Z,93.78
2023-10-16T02:37:09.718Z,93.57
2023-10-16T02:38:09.711Z,93.41
2023-10-16T02:39:09.748Z,93.62
2023-10-16T02:40:09.702Z,93.72
2023-10-16T02:41:09.677Z,93.82
2023-10-16T02:42:09.672Z,93.82
2023-10-16T02:43:09.651Z,93.72
2023-10-16T02:44:09.699Z,93.93
2023-10-16T02:45:09.644Z,94.24
2023-10-16T02:46:09.638Z,94.24
2023-10-16T02:47:09.606Z,94.03
2023-10-16T02:48:09.614Z,93.93
2023-10-16T02:49:09.603Z,94.03
2023-10-16T02:50:09.609Z,94.13
2023-10-16T02:51:09.569Z,94.03
2023-10-16T02:52:09.551Z,94.13
2023-10-16T02:53:09.547Z,94.34
2023-10-16T02:54:09.548Z,94.13
2023-10-16T02:55:09.565Z,94.24
2023-10-16T02:56:09.524Z,94.34
2023-10-16T02:57:09.511Z,94.34
2023-10-16T02:58:09.523Z,94.55
2023-10-16T02:59:09.553Z,94.34
2023-10-16T03:00:09.525Z,94.96
2023-10-16T03:01:09.523Z,94.86
2023-10-16T03:02:09.472Z,95.07
2023-10-16T03:03:09.449Z,95.17
2023-10-16T03:04:09.459Z,95.28
2023-10-16T03:05:09.449Z,95.07
2023-10-16T03:06:09.434Z,95.21
2023-10-16T03:07:09.419Z,95.01
2023-10-16T03:08:09.414Z,95.11
2023-10-16T03:09:09.397Z,95.21
2023-10-16T03:10:09.396Z,95.01
2023-10-16T03:11:09.401Z,95.11
2023-10-16T03:12:09.353Z,95.63
2023-10-16T03:13:09.360Z,95.53
2023-10-16T03:14:09.349Z,95.53
2023-10-16T03:15:09.331Z,95.84
2023-10-16T03:16:09.319Z,95.73
2023-10-16T03:17:09.350Z,95.84
2023-10-16T03:18:09.314Z,95.84
2023-10-16T03:19:09.305Z,95.94
2023-10-16T03:20:09.273Z,95.73
2023-10-16T03:21:09.268Z,96.25
2023-10-16T03:22:09.279Z,95.84
2023-10-16T03:23:09.233Z,95.73
2023-10-16T03:24:09.244Z,95.73
2023-10-16T03:25:09.220Z,95.84
2023-10-16T03:26:09.213Z,95.73
2023-10-16T03:27:09.205Z,96.11
2023-10-16T03:28:09.218Z,95.69
2023-10-16T03:29:09.189Z,96.00
2023-10-16T03:30:09.174Z,95.69
2023-10-16T03:31:09.203Z,95.79
2023-10-16T03:32:09.178Z,95.79
2023-10-16T03:33:09.276Z,95.90
2023-10-16T03:34:09.154Z,95.79
2023-10-16T03:35:09.124Z,95.79
2023-10-16T03:36:09.110Z,95.79
2023-10-16T03:37:09.105Z,95.69
2023-10-16T03:38:09.088Z,95.79
2023-10-16T03:39:09.140Z,95.79
2023-10-16T03:40:09.109Z,95.69
2023-10-16T03:41:09.063Z,95.48
2023-10-16T03:42:09.046Z,95.48
2023-10-16T03:43:09.045Z,95.38
2023-10-16T03:44:09.955Z,95.48
2023-10-16T03:45:09.047Z,95.48
2023-10-16T03:46:09.043Z,95.07
2023-10-16T03:47:09.009Z,95.07
2023-10-16T03:48:08.986Z,94.86
2023-10-16T03:49:08.998Z,94.86
2023-10-16T03:50:08.966Z,94.55
2023-10-16T03:51:08.992Z,94.96
2023-10-16T03:52:08.958Z,94.96
2023-10-16T03:53:08.928Z,94.71
2023-10-16T03:54:08.957Z,94.76
2023-10-16T03:55:09.001Z,94.71
2023-10-16T03:56:08.892Z,94.71
2023-10-16T03:57:08.949Z,94.82
2023-10-16T03:58:08.886Z,94.92
2023-10-16T03:59:08.890Z,94.82
2023-10-16T04:00:08.883Z,94.82
2023-10-16T04:01:08.844Z,94.61
2023-10-16T04:02:08.844Z,94.71
2023-10-16T04:03:08.924Z,94.71
2023-10-16T04:04:08.922Z,94.61
2023-10-16T04:05:08.860Z,94.61
2023-10-16T04:06:08.799Z,94.82
2023-10-16T04:07:08.791Z,94.51
2023-10-16T04:08:08.769Z,94.40
2023-10-16T04:09:08.804Z,94.51
2023-10-16T04:10:08.757Z,94.51
2023-10-16T04:11:08.758Z,94.40
2023-10-16T04:12:08.771Z,94.61
2023-10-16T04:13:08.747Z,94.61
2023-10-16T04:14:08.736Z,94.61
2023-10-16T04:15:08.752Z,94.71
2023-10-16T04:16:08.699Z,94.51
2023-10-16T04:17:08.689Z,94.40
2023-10-16T04:18:08.683Z,94.61
2023-10-16T04:19:08.673Z,94.82
2023-10-16T04:20:08.658Z,94.82
2023-10-16T04:21:08.696Z,94.30
2023-10-16T04:22:08.625Z,94.51
2023-10-16T04:23:08.619Z,94.40
2023-10-16T04:24:08.631Z,94.30
2023-10-16T04:25:08.643Z,94.71
2023-10-16T04:26:08.588Z,94.92
2023-10-16T04:27:08.856Z,95.23
2023-10-16T04:28:08.572Z,95.23
2023-10-16T04:29:08.576Z,95.13
2023-10-16T04:30:09.622Z,95.34
2023-10-16T04:31:08.622Z,95.59
2023-10-16T04:32:08.532Z,95.54
2023-10-16T04:33:08.571Z,95.54
2023-10-16T04:34:08.526Z,95.44
2023-10-16T04:35:08.498Z,95.54
2023-10-16T04:36:08.498Z,95.65
2023-10-16T04:37:08.488Z,95.65
2023-10-16T04:38:08.479Z,95.44
2023-10-16T04:39:08.500Z,95.44
2023-10-16T04:40:08.478Z,95.34
2023-10-16T04:41:08.436Z,94.82
2023-10-16T04:42:08.419Z,94.82
2023-10-16T04:43:08.456Z,94.92
2023-10-16T04:44:08.436Z,94.92
2023-10-16T04:45:08.439Z,95.13
2023-10-16T04:46:08.432Z,95.03
2023-10-16T04:47:08.393Z,94.82
2023-10-16T04:48:08.469Z,94.61
2023-10-16T04:49:08.346Z,94.40
2023-10-16T04:50:08.382Z,94.40
2023-10-16T04:51:29.266Z,94.61
2023-10-16T04:52:08.859Z,94.61
2023-10-16T04:53:08.318Z,94.71
2023-10-16T04:54:08.302Z,94.71
2023-10-16T04:55:08.397Z,94.96
2023-10-16T04:56:08.271Z,94.96
2023-10-16T04:57:08.357Z,94.96
2023-10-16T04:58:08.256Z,94.86
2023-10-16T04:59:08.263Z,95.07
2023-10-16T05:00:08.238Z,95.07
2023-10-16T05:01:08.280Z,95.07
2023-10-16T05:02:08.223Z,95.03
2023-10-16T05:03:08.331Z,94.92
2023-10-16T05:04:08.247Z,94.82
2023-10-16T05:05:08.196Z,95.03
2023-10-16T05:06:08.182Z,94.92
2023-10-16T05:07:08.194Z,95.03
2023-10-16T05:08:08.181Z,94.61
2023-10-16T05:09:08.209Z,94.71
2023-10-16T05:10:08.142Z,94.40
2023-10-16T05:11:08.119Z,94.40
2023-10-16T05:12:08.130Z,94.51
2023-10-16T05:13:08.104Z,94.51
2023-10-16T05:14:08.102Z,94.20
2023-10-16T05:15:08.128Z,94.30
2023-10-16T05:16:08.150Z,94.40
2023-10-16T05:17:14.604Z,94.71
2023-10-16T05:18:08.050Z,94.82
2023-10-16T05:19:08.077Z,94.71
2023-10-16T05:20:08.037Z,94.61
2023-10-16T05:21:08.045Z,94.51
2023-10-16T05:22:08.068Z,94.71
2023-10-16T05:23:07.994Z,94.61
2023-10-16T05:24:08.030Z,94.51
2023-10-16T05:25:08.064Z,94.71
2023-10-16T05:26:07.976Z,94.82
2023-10-16T05:27:07.996Z,94.71
2023-10-16T05:28:07.950Z,94.92
2023-10-16T05:29:07.968Z,94.82
2023-10-16T05:30:07.940Z,94.92
2023-10-16T05:31:07.959Z,94.82
2023-10-16T05:32:07.914Z,94.71
2023-10-16T05:33:07.930Z,94.71
2023-10-16T05:34:07.892Z,94.71
2023-10-16T05:35:07.890Z,94.71
2023-10-16T05:36:07.879Z,94.40
2023-10-16T05:37:07.869Z,94.51
2023-10-16T05:38:07.842Z,94.40
2023-10-16T05:39:07.889Z,94.40
2023-10-16T05:40:07.826Z,94.40
2023-10-16T05:41:07.811Z,94.40
2023-10-16T05:42:07.804Z,94.30
2023-10-16T05:43:07.794Z,94.09
2023-10-16T05:44:07.788Z,93.99
2023-10-16T05:45:07.888Z,93.88
2023-10-16T05:46:07.831Z,94.30
2023-10-16T05:47:07.795Z,93.99
2023-10-16T05:48:07.780Z,94.30
2023-10-16T05:49:07.770Z,93.99
2023-10-16T05:50:07.719Z,94.30
2023-10-16T05:51:07.762Z,94.09
2023-10-16T05:52:07.704Z,94.20
2023-10-16T05:53:07.690Z,94.09
2023-10-16T05:54:07.726Z,94.36
2023-10-16T05:55:07.698Z,94.20
2023-10-16T05:56:07.660Z,93.88
2023-10-16T05:57:07.681Z,94.05
2023-10-16T05:58:07.631Z,94.15
2023-10-16T05:59:07.633Z,93.99
2023-10-16T06:00:07.609Z,94.36
2023-10-16T06:01:07.733Z,94.46
2023-10-16T06:02:07.613Z,94.57
2023-10-16T06:03:07.650Z,94.36
2023-10-16T06:04:07.699Z,94.36
2023-10-16T06:05:07.729Z,94.36
2023-10-16T06:06:07.577Z,94.36
2023-10-16T06:07:07.617Z,94.26
2023-10-16T06:08:07.534Z,94.15
2023-10-16T06:09:07.562Z,93.84
2023-10-16T06:10:07.572Z,93.95
2023-10-16T06:11:07.503Z,93.95
2023-10-16T06:12:07.507Z,93.95
2023-10-16T06:13:07.502Z,93.95
2023-10-16T06:14:07.489Z,94.15
2023-10-16T06:15:07.500Z,94.15
2023-10-16T06:16:07.485Z,94.05
2023-10-16T06:17:07.442Z,94.15
2023-10-16T06:18:07.466Z,94.36
2023-10-16T06:19:07.433Z,94.15
2023-10-16T06:20:07.406Z,94.11
2023-10-16T06:21:07.439Z,94.11
2023-10-16T06:22:07.468Z,93.90
2023-10-16T06:23:07.380Z,93.90
2023-10-16T06:24:07.381Z,93.70
2023-10-16T06:25:07.467Z,93.49
2023-10-16T06:26:07.359Z,93.49
2023-10-16T06:27:07.349Z,93.28
2023-10-16T06:28:07.336Z,93.28
2023-10-16T06:29:07.312Z,93.18
2023-10-16T06:30:07.419Z,93.33
2023-10-16T06:31:07.369Z,92.93
2023-10-16T06:32:07.310Z,93.02
2023-10-16T06:33:07.459Z,93.13
2023-10-16T06:34:07.278Z,93.23
2023-10-16T06:35:07.248Z,93.44
2023-10-16T06:36:07.274Z,93.02
2023-10-16T06:37:07.236Z,93.13
2023-10-16T06:38:07.240Z,93.13
2023-10-16T06:39:07.418Z,92.72
2023-10-16T06:40:07.265Z,93.02
2023-10-16T06:41:07.196Z,92.61
2023-10-16T06:42:07.208Z,92.57
2023-10-16T06:43:07.210Z,92.36
2023-10-16T06:44:07.155Z,92.57
2023-10-16T06:45:07.257Z,92.36
2023-10-16T06:46:07.196Z,91.95
2023-10-16T06:47:07.189Z,91.91
2023-10-16T06:48:07.222Z,91.80
2023-10-16T06:49:07.133Z,91.80
2023-10-16T06:50:07.111Z,91.70
2023-10-16T06:51:07.125Z,91.39
2023-10-16T06:52:07.116Z,91.39
2023-10-16T06:53:07.084Z,91.39
2023-10-16T06:54:07.074Z,91.39
2023-10-16T06:55:07.075Z,91.03
2023-10-16T06:56:07.065Z,90.83
2023-10-16T06:57:07.052Z,90.83
2023-10-16T06:58:09.738Z,90.83
2023-10-16T06:59:07.026Z,90.93
2023-10-16T07:00:06.998Z,90.72
2023-10-16T07:01:07.026Z,90.89
2023-10-16T07:02:06.976Z,90.37
2023-10-16T07:03:07.083Z,90.58
2023-10-16T07:04:07.010Z,90.37
2023-10-16T07:05:06.985Z,89.96
2023-10-16T07:06:07.017Z,90.06
2023-10-16T07:07:06.931Z,90.06
2023-10-16T07:08:06.941Z,90.06
2023-10-16T07:09:06.950Z,90.23
2023-10-16T07:10:06.888Z,89.81
2023-10-16T07:11:06.886Z,89.71
2023-10-16T07:12:06.872Z,89.19
2023-10-16T07:13:06.952Z,89.19
2023-10-16T07:14:06.862Z,88.98
2023-10-16T07:15:06.878Z,88.98
2023-10-16T07:16:06.925Z,89.19
2023-10-16T07:17:06.832Z,89.04
2023-10-16T07:18:06.905Z,88.64
2023-10-16T07:19:06.849Z,88.53
2023-10-16T07:20:06.785Z,88.53
2023-10-16T07:21:06.824Z,88.22
2023-10-16T07:22:06.853Z,88.22
2023-10-16T07:23:06.762Z,88.64
2023-10-16T07:24:06.771Z,88.49
2023-10-16T07:25:06.771Z,88.39
2023-10-16T07:26:06.762Z,88.18
2023-10-16T07:27:06.782Z,88.39
2023-10-16T07:28:06.705Z,88.49
2023-10-16T07:29:06.700Z,87.76
2023-10-16T07:30:06.733Z,87.76
2023-10-16T07:31:07.107Z,87.56
2023-10-16T07:32:06.665Z,88.39
2023-10-16T07:33:06.718Z,88.24
2023-10-16T07:34:06.700Z,88.04
2023-10-16T07:35:06.640Z,88.14
2023-10-16T07:36:06.621Z,87.21
2023-10-16T07:37:06.645Z,87.52
2023-10-16T07:38:06.688Z,87.21
2023-10-16T07:39:06.654Z,87.31
2023-10-16T07:40:06.633Z,86.76
2023-10-16T07:41:06.575Z,86.86
2023-10-16T07:42:06.569Z,87.07
2023-10-16T07:43:06.582Z,86.44
2023-10-16T07:44:06.573Z,86.13
2023-10-16T07:45:06.561Z,85.93
2023-10-16T07:46:06.608Z,86.03
2023-10-16T07:47:06.534Z,85.89
2023-10-16T07:48:06.533Z,85.99
2023-10-16T07:49:06.539Z,86.10
2023-10-16T07:50:06.498Z,85.78
2023-10-16T07:51:06.508Z,84.86
2023-10-16T07:52:06.466Z,84.81
2023-10-16T07:53:06.448Z,84.81
2023-10-16T07:54:06.447Z,85.13
2023-10-16T07:55:06.468Z,84.72
2023-10-16T07:56:06.429Z,84.78
2023-10-16T07:57:06.465Z,83.85
2023-10-16T07:58:06.480Z,83.33
2023-10-16T07:59:06.419Z,82.98
2023-10-16T08:00:06.374Z,83.40
2023-10-16T08:01:06.448Z,83.40
2023-10-16T08:02:06.381Z,83.40
2023-10-16T08:03:06.988Z,82.89
2023-10-16T08:04:06.412Z,82.47
2023-10-16T08:05:06.332Z,82.57
2023-10-16T08:06:06.324Z,82.68
2023-10-16T08:07:06.797Z,82.68
2023-10-16T08:08:06.292Z,82.64
2023-10-16T08:09:06.307Z,82.84
2023-10-16T08:10:06.400Z,82.54
2023-10-16T08:11:06.335Z,82.50
2023-10-16T08:12:06.244Z,82.09
2023-10-16T08:13:06.243Z,81.47
2023-10-16T08:14:06.254Z,81.33
2023-10-16T08:15:06.240Z,81.33
2023-10-16T08:16:06.359Z,81.09
2023-10-16T08:17:06.596Z,80.05
2023-10-16T08:18:06.321Z,79.71
2023-10-16T08:19:06.195Z,79.71
2023-10-16T08:20:06.153Z,79.50
2023-10-16T08:21:06.216Z,79.36
2023-10-16T08:22:06.285Z,79.36
2023-10-16T08:23:06.126Z,78.54
2023-10-16T08:24:06.121Z,78.13
2023-10-16T08:25:06.257Z,77.89
2023-10-16T08:26:06.127Z,77.17
2023-10-16T08:27:06.140Z,77.27
2023-10-16T08:28:06.170Z,76.72
2023-10-16T08:29:06.062Z,76.93
2023-10-16T08:30:06.076Z,76.62
2023-10-16T08:31:06.118Z,76.68
2023-10-16T08:32:06.035Z,76.38
2023-10-16T08:33:06.071Z,75.73
2023-10-16T08:34:06.109Z,75.73
2023-10-16T08:35:06.756Z,76.04
2023-10-16T08:36:06.029Z,75.69
2023-10-16T08:37:06.041Z,75.52
2023-10-16T08:38:05.956Z,75.93
2023-10-16T08:39:06.049Z,75.69
2023-10-16T08:40:06.742Z,75.01
2023-10-16T08:41:05.932Z,75.08
2023-10-16T08:42:05.943Z,74.98
2023-10-16T08:43:06.076Z,74.15
2023-10-16T08:44:05.916Z,73.23
2023-10-16T08:45:05.935Z,73.85
2023-10-16T08:46:05.990Z,73.88
2023-10-16T08:47:05.895Z,74.57
2023-10-16T08:48:05.954Z,75.38
2023-10-16T08:49:05.923Z,74.57
2023-10-16T08:50:05.861Z,73.95
2023-10-16T08:51:05.951Z,74.22
2023-10-16T08:52:05.969Z,74.53
2023-10-16T08:53:05.801Z,73.61
2023-10-16T08:54:05.835Z,74.63
2023-10-16T08:55:05.835Z,74.73
2023-10-16T08:56:05.790Z,74.84
2023-10-16T08:57:05.822Z,75.35
2023-10-16T08:58:05.788Z,74.53
2023-10-16T08:59:06.091Z,74.73
2023-10-16T09:00:05.733Z,74.02
2023-10-16T09:01:05.811Z,74.22
2023-10-16T09:02:05.718Z,75.24
2023-10-16T09:03:05.778Z,74.73
2023-10-16T09:04:05.788Z,74.63
2023-10-16T09:05:05.689Z,75.11
2023-10-16T09:06:05.679Z,75.01
2023-10-16T09:07:05.779Z,74.08
2023-10-16T09:08:05.652Z,74.29
2023-10-16T09:09:05.683Z,73.68
2023-10-16T09:10:05.660Z,74.39
2023-10-16T09:11:05.637Z,75.11
2023-10-16T09:12:05.622Z,74.60
2023-10-16T09:13:05.684Z,75.52
2023-10-16T09:14:05.595Z,75.11
2023-10-16T09:15:05.595Z,74.36
2023-10-16T09:16:05.602Z,73.13
2023-10-16T09:17:05.599Z,72.72
2023-10-16T09:18:05.571Z,72.78
2023-10-16T09:19:05.638Z,73.98
2023-10-16T09:20:06.390Z,72.21
2023-10-16T09:21:05.572Z,72.48
2023-10-16T09:22:05.610Z,71.42
2023-10-16T09:23:05.493Z,69.89
2023-10-16T09:24:05.476Z,68.53
2023-10-16T09:25:05.531Z,67.92
2023-10-16T09:26:05.454Z,67.30
2023-10-16T09:27:05.510Z,68.63
2023-10-16T09:28:05.494Z,67.85
2023-10-16T09:29:05.593Z,67.65
2023-10-16T09:30:05.560Z,68.57
2023-10-16T09:31:12.410Z,68.87
2023-10-16T09:32:05.499Z,68.46
2023-10-16T09:33:05.471Z,68.36
2023-10-16T09:34:05.403Z,67.75
2023-10-16T09:35:05.379Z,67.85
2023-10-16T09:36:05.361Z,67.41
2023-10-16T09:37:05.392Z,67.44
2023-10-16T09:38:05.342Z,67.92
2023-10-16T09:39:05.346Z,68.53
2023-10-16T09:40:05.377Z,68.53
2023-10-16T09:41:05.330Z,67.10
2023-10-16T09:42:05.296Z,66.97
2023-10-16T09:43:05.309Z,66.33
2023-10-16T09:44:05.264Z,65.41
2023-10-16T09:45:05.310Z,65.37
2023-10-16T09:46:05.285Z,64.97
2023-10-16T09:47:05.276Z,66.67
2023-10-16T09:48:05.289Z,64.43
2023-10-16T09:49:05.287Z,64.09
2023-10-16T09:50:05.194Z,63.38
2023-10-16T09:51:05.255Z,63.58
2023-10-16T09:52:07.131Z,62.33
2023-10-16T09:53:05.236Z,63.07
2023-10-16T09:54:05.157Z,64.40
2023-10-16T09:55:05.226Z,63.99
2023-10-16T09:56:05.195Z,63.61
2023-10-16T09:57:05.187Z,63.82
2023-10-16T09:58:05.146Z,64.22
2023-10-16T09:59:05.140Z,63.20
2023-10-16T10:00:05.106Z,63.03
2023-10-16T10:01:05.097Z,64.36
2023-10-16T10:02:05.199Z,64.15
2023-10-16T10:03:05.145Z,63.64
2023-10-16T10:04:05.293Z,64.79
2023-10-16T10:05:05.054Z,64.90
2023-10-16T10:06:05.112Z,65.92
2023-10-16T10:07:05.058Z,65.81
2023-10-16T10:08:05.011Z,66.42
2023-10-16T10:09:05.037Z,66.53
2023-10-16T10:10:04.996Z,66.56
2023-10-16T10:11:17.978Z,66.56
2023-10-16T10:12:04.971Z,66.25
2023-10-16T10:13:04.983Z,66.86
2023-10-16T10:14:05.004Z,65.95
2023-10-16T10:15:04.966Z,65.23
2023-10-16T10:16:04.972Z,65.67
2023-10-16T10:17:04.998Z,65.77
2023-10-16T10:18:04.939Z,66.39
2023-10-16T10:19:04.981Z,67.00
2023-10-16T10:20:04.892Z,67.51
2023-10-16T10:21:04.905Z,67.61
2023-10-16T10:22:04.884Z,67.92
2023-10-16T10:23:04.867Z,67.41
2023-10-16T10:24:04.861Z,67.51
2023-10-16T10:25:05.045Z,67.51
2023-10-16T10:26:04.843Z,67.41
2023-10-16T10:27:04.855Z,67.10
2023-10-16T10:28:04.858Z,66.69
2023-10-16T10:29:04.828Z,67.30
2023-10-16T10:30:04.779Z,67.71
2023-10-16T10:31:04.783Z,67.10
2023-10-16T10:32:04.849Z,66.39
2023-10-16T10:33:04.810Z,66.59
2023-10-16T10:34:04.764Z,67.21
2023-10-16T10:35:04.733Z,67.61
2023-10-16T10:36:04.734Z,66.90
2023-10-16T10:37:04.789Z,67.18
2023-10-16T10:38:04.696Z,66.66
2023-10-16T10:39:04.759Z,66.86
2023-10-16T10:40:04.706Z,66.77
2023-10-16T10:41:04.668Z,66.97
2023-10-16T10:42:05.066Z,66.46
2023-10-16T10:43:04.659Z,65.71
2023-10-16T10:44:04.660Z,65.41
2023-10-16T10:45:04.718Z,66.12
2023-10-16T10:46:04.738Z,65.31
2023-10-16T10:47:04.637Z,64.97
2023-10-16T10:48:04.624Z,64.76
2023-10-16T10:49:06.240Z,64.32
2023-10-16T10:50:04.637Z,63.31
2023-10-16T10:51:04.614Z,63.28
2023-10-16T10:52:04.572Z,62.97
2023-10-16T10:53:04.548Z,61.82
2023-10-16T10:54:04.546Z,62.43
2023-10-16T10:55:04.607Z,63.56
2023-10-16T10:56:04.514Z,62.54
2023-10-16T10:57:05.293Z,61.52
2023-10-16T10:58:04.536Z,61.82
2023-10-16T10:59:04.542Z,61.82
2023-10-16T11:00:04.460Z,61.72
2023-10-16T11:01:04.499Z,61.61
2023-10-16T11:02:04.463Z,61.85
2023-10-16T11:03:04.530Z,62.26
2023-10-16T11:04:04.499Z,62.39
2023-10-16T11:05:04.410Z,62.59
2023-10-16T11:06:04.394Z,63.61
2023-10-16T11:07:04.471Z,63.44
2023-10-16T11:08:04.408Z,62.62
2023-10-16T11:09:04.393Z,63.34
2023-10-16T11:10:04.363Z,63.95
2023-10-16T11:11:04.329Z,63.78
2023-10-16T11:12:04.333Z,63.57
2023-10-16T11:13:04.362Z,63.37
2023-10-16T11:14:04.336Z,64.18
2023-10-16T11:15:04.328Z,64.69
2023-10-16T11:16:04.435Z,64.18
2023-10-16T11:17:04.274Z,62.73
2023-10-16T11:18:04.353Z,62.42
2023-10-16T11:19:04.299Z,63.31
2023-10-16T11:20:04.283Z,63.20
2023-10-16T11:21:04.295Z,61.75
2023-10-16T11:22:04.240Z,61.24
2023-10-16T11:23:05.132Z,61.85
2023-10-16T11:24:04.222Z,62.13
2023-10-16T11:25:04.241Z,60.60
2023-10-16T11:26:04.195Z,59.99
2023-10-16T11:27:04.182Z,60.39
2023-10-16T11:28:04.191Z,60.91
2023-10-16T11:29:04.146Z,62.20
2023-10-16T11:30:04.143Z,60.27
2023-10-16T11:31:04.203Z,58.23
2023-10-16T11:32:04.152Z,58.44
2023-10-16T11:33:04.185Z,58.84
2023-10-16T11:34:04.535Z,57.82
2023-10-16T11:35:04.658Z,59.35
2023-10-16T11:36:04.467Z,59.86
2023-10-16T11:37:04.046Z,59.45
2023-10-16T11:38:04.090Z,58.61
2023-10-16T11:39:04.054Z,58.51
2023-10-16T11:40:04.078Z,58.10
2023-10-16T11:41:04.005Z,58.30
2023-10-16T11:42:03.999Z,58.38
2023-10-16T11:43:04.034Z,58.30
2023-10-16T11:44:04.006Z,59.09
2023-10-16T11:45:03.968Z,57.97
2023-10-16T11:46:04.019Z,58.38
2023-10-16T11:47:04.006Z,57.46
2023-10-16T11:48:04.006Z,57.36
2023-10-16T11:49:04.084Z,56.75
2023-10-16T11:50:03.912Z,55.83
2023-10-16T11:51:03.909Z,56.85
2023-10-16T11:52:03.954Z,57.87
2023-10-16T11:53:03.882Z,56.95
2023-10-16T11:54:03.895Z,56.37
2023-10-16T11:55:03.961Z,56.47
2023-10-16T11:56:03.857Z,58.30
2023-10-16T11:57:03.861Z,57.29
2023-10-16T11:58:03.850Z,58.92
2023-10-16T11:59:03.825Z,57.82
2023-10-16T12:00:03.852Z,57.42
2023-10-16T12:02:04.848Z,58.33
2023-10-16T12:03:03.781Z,58.23
2023-10-16T12:04:03.810Z,57.52
2023-10-16T12:05:03.812Z,58.15
2023-10-16T12:06:03.776Z,59.68
2023-10-16T12:07:03.740Z,60.39
2023-10-16T12:08:03.723Z,59.96
2023-10-16T12:09:03.773Z,58.84
2023-10-16T12:10:03.738Z,59.96
2023-10-16T12:11:03.727Z,59.05
2023-10-16T12:12:03.673Z,59.35
2023-10-16T12:13:03.695Z,57.82
2023-10-16T12:14:03.672Z,57.95
2023-10-16T12:15:03.632Z,58.36
2023-10-16T12:16:03.652Z,58.76
2023-10-16T12:17:03.641Z,59.68
2023-10-16T12:18:03.663Z,59.78
2023-10-16T12:19:03.615Z,59.89
2023-10-16T12:20:03.576Z,59.89
2023-10-16T12:21:03.622Z,58.87
2023-10-16T12:22:03.664Z,59.58
2023-10-16T12:23:03.620Z,59.81
2023-10-16T12:24:03.550Z,59.61
2023-10-16T12:25:03.521Z,59.51
2023-10-16T12:26:03.565Z,60.12
2023-10-16T12:27:03.526Z,60.83
2023-10-16T12:28:03.586Z,60.42
2023-10-16T12:29:03.491Z,60.73
2023-10-16T12:30:03.483Z,60.25
2023-10-16T12:31:03.495Z,60.05
2023-10-16T12:32:03.456Z,58.72
2023-10-16T12:33:03.486Z,58.92
2023-10-16T12:34:03.493Z,58.62
2023-10-16T12:35:03.427Z,57.80
2023-10-16T12:36:03.427Z,57.52
2023-10-16T12:37:03.427Z,58.34
2023-10-16T12:38:03.563Z,59.36
2023-10-16T12:39:03.387Z,60.48
2023-10-16T12:40:03.464Z,60.89
2023-10-16T12:41:03.364Z,61.40
2023-10-16T12:42:03.396Z,61.80
2023-10-16T12:43:03.389Z,62.62
2023-10-16T12:44:03.349Z,62.21
2023-10-16T12:45:03.365Z,62.21
2023-10-16T12:46:03.380Z,61.50
2023-10-16T12:47:03.306Z,61.71
2023-10-16T12:48:03.322Z,61.94
2023-10-16T12:49:03.301Z,61.73
2023-10-16T12:50:03.275Z,61.63
2023-10-16T12:51:10.297Z,61.32
2023-10-16T12:52:03.241Z,61.63
2023-10-16T12:53:03.232Z,62.35